sensor_id;sensor_type;location;lat;lon;timestamp;temperature;humidity
33580;DHT22;19909;43.644;-79.438;2023-06-19T00:00:39;23.60;50.90
33580;DHT22;19909;43.644;-79.438;2023-06-19T00:03:05;23.70;50.90
33580;DHT22;19909;43.644;-79.438;2023-06-19T00:05:31;23.60;50.90
33580;DHT22;19909;43.644;-79.438;2023-06-19T00:07:58;23.70;51.00
33580;DHT22;19909;43.644;-79.438;2023-06-19T00:10:24;23.60;50.90
33580;DHT22;19909;43.644;-79.438;2023-06-19T00:12:50;23.60;50.80
33580;DHT22;19909;43.644;-79.438;2023-06-19T00:15:17;23.70;50.90
33580;DHT22;19909;43.644;-79.438;2023-06-19T00:17:43;23.70;50.90
33580;DHT22;19909;43.644;-79.438;2023-06-19T00:20:09;23.70;50.90
33580;DHT22;19909;43.644;-79.438;2023-06-19T00:22:36;23.70;50.90
33580;DHT22;19909;43.644;-79.438;2023-06-19T00:25:02;23.70;50.90
33580;DHT22;19909;43.644;-79.438;2023-06-19T00:27:28;23.70;50.80
33580;DHT22;19909;43.644;-79.438;2023-06-19T00:29:55;23.70;50.90
33580;DHT22;19909;43.644;-79.438;2023-06-19T00:32:30;23.70;50.90
33580;DHT22;19909;43.644;-79.438;2023-06-19T00:34:56;23.70;51.00
33580;DHT22;19909;43.644;-79.438;2023-06-19T00:37:22;23.70;51.00
33580;DHT22;19909;43.644;-79.438;2023-06-19T00:39:48;23.60;51.00
33580;DHT22;19909;43.644;-79.438;2023-06-19T00:42:15;23.70;51.00
33580;DHT22;19909;43.644;-79.438;2023-06-19T00:44:41;23.70;51.00
33580;DHT22;19909;43.644;-79.438;2023-06-19T00:47:07;23.70;51.00
33580;DHT22;19909;43.644;-79.438;2023-06-19T00:49:33;23.70;51.00
33580;DHT22;19909;43.644;-79.438;2023-06-19T00:51:59;23.70;51.00
33580;DHT22;19909;43.644;-79.438;2023-06-19T00:54:26;23.70;50.90
33580;DHT22;19909;43.644;-79.438;2023-06-19T00:56:52;23.70;50.90
33580;DHT22;19909;43.644;-79.438;2023-06-19T00:59:20;23.70;50.90
33580;DHT22;19909;43.644;-79.438;2023-06-19T01:01:46;23.70;51.00
33580;DHT22;19909;43.644;-79.438;2023-06-19T01:04:13;23.70;51.00
33580;DHT22;19909;43.644;-79.438;2023-06-19T01:07:04;23.70;51.00
33580;DHT22;19909;43.644;-79.438;2023-06-19T01:09:33;23.70;51.00
33580;DHT22;19909;43.644;-79.438;2023-06-19T01:12:08;23.70;51.00
33580;DHT22;19909;43.644;-79.438;2023-06-19T01:14:43;23.70;50.90
33580;DHT22;19909;43.644;-79.438;2023-06-19T01:17:12;23.70;50.90
33580;DHT22;19909;43.644;-79.438;2023-06-19T01:19:39;23.70;50.90
33580;DHT22;19909;43.644;-79.438;2023-06-19T01:22:05;23.70;51.00
33580;DHT22;19909;43.644;-79.438;2023-06-19T01:24:31;23.70;50.90
33580;DHT22;19909;43.644;-79.438;2023-06-19T01:26:58;23.70;50.90
33580;DHT22;19909;43.644;-79.438;2023-06-19T01:29:24;23.70;50.90
33580;DHT22;19909;43.644;-79.438;2023-06-19T01:31:59;23.70;51.00
33580;DHT22;19909;43.644;-79.438;2023-06-19T01:34:27;23.70;50.90
33580;DHT22;19909;43.644;-79.438;2023-06-19T01:36:56;23.60;50.90
33580;DHT22;19909;43.644;-79.438;2023-06-19T01:39:23;23.70;50.90
33580;DHT22;19909;43.644;-79.438;2023-06-19T01:41:51;23.70;51.00
33580;DHT22;19909;43.644;-79.438;2023-06-19T01:44:18;23.60;51.40
33580;DHT22;19909;43.644;-79.438;2023-06-19T01:46:48;23.60;50.80
33580;DHT22;19909;43.644;-79.438;2023-06-19T01:49:16;23.60;50.80
33580;DHT22;19909;43.644;-79.438;2023-06-19T01:51:42;23.70;50.90
33580;DHT22;19909;43.644;-79.438;2023-06-19T01:54:08;23.70;50.80
33580;DHT22;19909;43.644;-79.438;2023-06-19T01:56:35;23.70;50.90
33580;DHT22;19909;43.644;-79.438;2023-06-19T01:59:01;23.70;50.90
33580;DHT22;19909;43.644;-79.438;2023-06-19T02:01:27;23.70;50.90
33580;DHT22;19909;43.644;-79.438;2023-06-19T02:03:53;23.60;50.90
33580;DHT22;19909;43.644;-79.438;2023-06-19T02:06:20;23.60;50.90
33580;DHT22;19909;43.644;-79.438;2023-06-19T02:08:47;23.60;51.00
33580;DHT22;19909;43.644;-79.438;2023-06-19T02:11:14;23.70;51.00
33580;DHT22;19909;43.644;-79.438;2023-06-19T02:13:41;23.60;50.90
33580;DHT22;19909;43.644;-79.438;2023-06-19T02:16:07;23.60;50.90
33580;DHT22;19909;43.644;-79.438;2023-06-19T02:18:33;23.60;50.70
33580;DHT22;19909;43.644;-79.438;2023-06-19T02:20:59;23.60;50.90
33580;DHT22;19909;43.644;-79.438;2023-06-19T02:23:25;23.60;50.70
33580;DHT22;19909;43.644;-79.438;2023-06-19T02:25:52;23.70;50.70
33580;DHT22;19909;43.644;-79.438;2023-06-19T02:28:18;23.70;50.80
33580;DHT22;19909;43.644;-79.438;2023-06-19T02:30:44;23.70;50.70
33580;DHT22;19909;43.644;-79.438;2023-06-19T02:33:10;23.70;50.60
33580;DHT22;19909;43.644;-79.438;2023-06-19T02:35:36;23.70;50.60
33580;DHT22;19909;43.644;-79.438;2023-06-19T02:38:02;23.70;50.40
33580;DHT22;19909;43.644;-79.438;2023-06-19T02:40:30;23.70;50.60
33580;DHT22;19909;43.644;-79.438;2023-06-19T02:42:56;23.70;50.40
33580;DHT22;19909;43.644;-79.438;2023-06-19T02:45:22;23.70;50.40
33580;DHT22;19909;43.644;-79.438;2023-06-19T02:47:48;23.70;50.50
33580;DHT22;19909;43.644;-79.438;2023-06-19T02:50:16;23.80;50.50
33580;DHT22;19909;43.644;-79.438;2023-06-19T02:52:42;23.80;50.20
33580;DHT22;19909;43.644;-79.438;2023-06-19T02:55:08;23.80;50.30
33580;DHT22;19909;43.644;-79.438;2023-06-19T02:57:35;23.80;50.30
33580;DHT22;19909;43.644;-79.438;2023-06-19T03:00:01;23.80;50.40
33580;DHT22;19909;43.644;-79.438;2023-06-19T03:02:27;23.80;50.30
33580;DHT22;19909;43.644;-79.438;2023-06-19T03:04:53;23.80;50.20
33580;DHT22;19909;43.644;-79.438;2023-06-19T03:07:19;23.80;50.20
33580;DHT22;19909;43.644;-79.438;2023-06-19T03:09:45;23.80;50.40
33580;DHT22;19909;43.644;-79.438;2023-06-19T03:12:11;23.80;50.20
33580;DHT22;19909;43.644;-79.438;2023-06-19T03:14:38;23.80;50.30
33580;DHT22;19909;43.644;-79.438;2023-06-19T03:17:05;23.80;50.40
33580;DHT22;19909;43.644;-79.438;2023-06-19T03:19:32;23.80;50.50
33580;DHT22;19909;43.644;-79.438;2023-06-19T03:21:58;23.80;50.50
33580;DHT22;19909;43.644;-79.438;2023-06-19T03:24:24;23.80;50.30
33580;DHT22;19909;43.644;-79.438;2023-06-19T03:26:51;23.80;50.20
33580;DHT22;19909;43.644;-79.438;2023-06-19T03:29:18;23.80;50.30
33580;DHT22;19909;43.644;-79.438;2023-06-19T03:31:44;23.80;50.40
33580;DHT22;19909;43.644;-79.438;2023-06-19T03:34:10;23.80;50.40
33580;DHT22;19909;43.644;-79.438;2023-06-19T03:36:36;23.80;50.40
33580;DHT22;19909;43.644;-79.438;2023-06-19T03:39:02;23.70;50.30
33580;DHT22;19909;43.644;-79.438;2023-06-19T03:41:28;23.70;50.30
33580;DHT22;19909;43.644;-79.438;2023-06-19T03:43:54;23.70;50.30
33580;DHT22;19909;43.644;-79.438;2023-06-19T03:46:21;23.70;50.50
33580;DHT22;19909;43.644;-79.438;2023-06-19T03:48:47;23.80;50.70
33580;DHT22;19909;43.644;-79.438;2023-06-19T03:51:13;23.80;50.70
33580;DHT22;19909;43.644;-79.438;2023-06-19T03:53:39;23.70;50.60
33580;DHT22;19909;43.644;-79.438;2023-06-19T03:56:05;23.80;50.70
33580;DHT22;19909;43.644;-79.438;2023-06-19T03:58:32;23.70;50.60
33580;DHT22;19909;43.644;-79.438;2023-06-19T04:00:58;23.70;50.60
33580;DHT22;19909;43.644;-79.438;2023-06-19T04:03:24;23.70;50.40
33580;DHT22;19909;43.644;-79.438;2023-06-19T04:05:50;23.70;50.60
33580;DHT22;19909;43.644;-79.438;2023-06-19T04:08:16;23.70;50.50
33580;DHT22;19909;43.644;-79.438;2023-06-19T04:10:43;23.70;50.60
33580;DHT22;19909;43.644;-79.438;2023-06-19T04:13:09;23.70;50.70
33580;DHT22;19909;43.644;-79.438;2023-06-19T04:15:35;23.70;50.70
33580;DHT22;19909;43.644;-79.438;2023-06-19T04:18:03;23.70;50.60
33580;DHT22;19909;43.644;-79.438;2023-06-19T04:20:29;23.70;50.70
33580;DHT22;19909;43.644;-79.438;2023-06-19T04:22:55;23.70;50.60
33580;DHT22;19909;43.644;-79.438;2023-06-19T04:25:21;23.70;50.70
33580;DHT22;19909;43.644;-79.438;2023-06-19T04:27:47;23.70;50.70
33580;DHT22;19909;43.644;-79.438;2023-06-19T04:30:14;23.70;50.70
33580;DHT22;19909;43.644;-79.438;2023-06-19T04:32:40;23.70;50.70
33580;DHT22;19909;43.644;-79.438;2023-06-19T04:35:07;23.70;50.80
33580;DHT22;19909;43.644;-79.438;2023-06-19T04:37:34;23.70;50.80
33580;DHT22;19909;43.644;-79.438;2023-06-19T04:40:00;23.70;50.70
33580;DHT22;19909;43.644;-79.438;2023-06-19T04:42:27;23.70;50.60
33580;DHT22;19909;43.644;-79.438;2023-06-19T04:44:53;23.70;50.70
33580;DHT22;19909;43.644;-79.438;2023-06-19T04:47:23;23.70;50.70
33580;DHT22;19909;43.644;-79.438;2023-06-19T04:49:49;23.70;50.80
33580;DHT22;19909;43.644;-79.438;2023-06-19T04:52:15;23.70;50.70
33580;DHT22;19909;43.644;-79.438;2023-06-19T04:54:42;23.70;50.60
33580;DHT22;19909;43.644;-79.438;2023-06-19T04:57:08;23.70;50.70
33580;DHT22;19909;43.644;-79.438;2023-06-19T04:59:34;23.70;50.80
33580;DHT22;19909;43.644;-79.438;2023-06-19T05:02:00;23.70;50.80
33580;DHT22;19909;43.644;-79.438;2023-06-19T05:04:26;23.70;50.80
33580;DHT22;19909;43.644;-79.438;2023-06-19T05:06:52;23.70;50.80
33580;DHT22;19909;43.644;-79.438;2023-06-19T05:09:18;23.60;50.90
33580;DHT22;19909;43.644;-79.438;2023-06-19T05:11:45;23.70;50.90
33580;DHT22;19909;43.644;-79.438;2023-06-19T05:14:11;23.70;50.90
33580;DHT22;19909;43.644;-79.438;2023-06-19T05:16:40;23.70;50.70
33580;DHT22;19909;43.644;-79.438;2023-06-19T05:19:06;23.70;50.70
33580;DHT22;19909;43.644;-79.438;2023-06-19T05:21:32;23.70;50.80
33580;DHT22;19909;43.644;-79.438;2023-06-19T05:23:58;23.70;50.70
33580;DHT22;19909;43.644;-79.438;2023-06-19T05:26:24;23.70;50.90
33580;DHT22;19909;43.644;-79.438;2023-06-19T05:28:52;23.70;50.80
33580;DHT22;19909;43.644;-79.438;2023-06-19T05:31:18;23.70;50.80
33580;DHT22;19909;43.644;-79.438;2023-06-19T05:33:45;23.70;50.80
33580;DHT22;19909;43.644;-79.438;2023-06-19T05:36:11;23.70;50.90
33580;DHT22;19909;43.644;-79.438;2023-06-19T05:38:37;23.70;51.00
33580;DHT22;19909;43.644;-79.438;2023-06-19T05:41:03;23.70;51.00
33580;DHT22;19909;43.644;-79.438;2023-06-19T05:43:29;23.60;50.80
33580;DHT22;19909;43.644;-79.438;2023-06-19T05:45:57;23.70;50.80
33580;DHT22;19909;43.644;-79.438;2023-06-19T05:48:25;23.70;50.80
33580;DHT22;19909;43.644;-79.438;2023-06-19T05:50:52;23.70;50.90
33580;DHT22;19909;43.644;-79.438;2023-06-19T05:53:18;23.70;50.80
33580;DHT22;19909;43.644;-79.438;2023-06-19T05:55:44;23.70;50.90
33580;DHT22;19909;43.644;-79.438;2023-06-19T05:58:10;23.70;50.90
33580;DHT22;19909;43.644;-79.438;2023-06-19T06:00:37;23.60;50.90
33580;DHT22;19909;43.644;-79.438;2023-06-19T06:03:03;23.70;50.90
33580;DHT22;19909;43.644;-79.438;2023-06-19T06:05:29;23.70;50.90
33580;DHT22;19909;43.644;-79.438;2023-06-19T06:07:55;23.60;50.90
33580;DHT22;19909;43.644;-79.438;2023-06-19T06:10:23;23.70;51.00
33580;DHT22;19909;43.644;-79.438;2023-06-19T06:12:49;23.70;50.90
33580;DHT22;19909;43.644;-79.438;2023-06-19T06:15:15;23.60;50.90
33580;DHT22;19909;43.644;-79.438;2023-06-19T06:17:41;23.60;50.80
33580;DHT22;19909;43.644;-79.438;2023-06-19T06:20:08;23.70;51.00
33580;DHT22;19909;43.644;-79.438;2023-06-19T06:22:41;23.60;50.90
33580;DHT22;19909;43.644;-79.438;2023-06-19T06:25:09;23.70;50.90
33580;DHT22;19909;43.644;-79.438;2023-06-19T06:27:38;23.70;50.90
33580;DHT22;19909;43.644;-79.438;2023-06-19T06:30:05;23.60;50.90
33580;DHT22;19909;43.644;-79.438;2023-06-19T06:32:31;23.60;50.90
33580;DHT22;19909;43.644;-79.438;2023-06-19T06:34:58;23.60;50.90
33580;DHT22;19909;43.644;-79.438;2023-06-19T06:37:24;23.70;51.00
33580;DHT22;19909;43.644;-79.438;2023-06-19T06:39:51;23.60;51.00
33580;DHT22;19909;43.644;-79.438;2023-06-19T06:42:18;23.60;51.00
33580;DHT22;19909;43.644;-79.438;2023-06-19T06:44:45;23.60;50.90
33580;DHT22;19909;43.644;-79.438;2023-06-19T06:47:11;23.70;51.00
33580;DHT22;19909;43.644;-79.438;2023-06-19T06:49:37;23.60;51.00
33580;DHT22;19909;43.644;-79.438;2023-06-19T06:52:04;23.60;50.90
33580;DHT22;19909;43.644;-79.438;2023-06-19T06:54:31;23.70;50.90
33580;DHT22;19909;43.644;-79.438;2023-06-19T06:56:57;23.60;50.80
33580;DHT22;19909;43.644;-79.438;2023-06-19T06:59:24;23.70;51.00
33580;DHT22;19909;43.644;-79.438;2023-06-19T07:01:51;23.60;50.90
33580;DHT22;19909;43.644;-79.438;2023-06-19T07:04:17;23.60;51.00
33580;DHT22;19909;43.644;-79.438;2023-06-19T07:06:43;23.60;51.00
33580;DHT22;19909;43.644;-79.438;2023-06-19T07:09:09;23.60;51.10
33580;DHT22;19909;43.644;-79.438;2023-06-19T07:11:36;23.60;51.10
33580;DHT22;19909;43.644;-79.438;2023-06-19T07:14:02;23.60;51.00
33580;DHT22;19909;43.644;-79.438;2023-06-19T07:16:28;23.60;50.90
33580;DHT22;19909;43.644;-79.438;2023-06-19T07:18:54;23.60;50.90
33580;DHT22;19909;43.644;-79.438;2023-06-19T07:21:21;23.60;51.00
33580;DHT22;19909;43.644;-79.438;2023-06-19T07:23:47;23.60;51.00
33580;DHT22;19909;43.644;-79.438;2023-06-19T07:26:14;23.60;50.90
33580;DHT22;19909;43.644;-79.438;2023-06-19T07:28:41;23.70;51.00
33580;DHT22;19909;43.644;-79.438;2023-06-19T07:31:07;23.60;51.60
33580;DHT22;19909;43.644;-79.438;2023-06-19T07:33:33;23.60;51.00
33580;DHT22;19909;43.644;-79.438;2023-06-19T07:36:01;23.60;51.10
33580;DHT22;19909;43.644;-79.438;2023-06-19T07:38:28;23.60;51.10
33580;DHT22;19909;43.644;-79.438;2023-06-19T07:40:54;23.60;51.10
33580;DHT22;19909;43.644;-79.438;2023-06-19T07:43:21;23.60;51.10
33580;DHT22;19909;43.644;-79.438;2023-06-19T07:45:50;23.60;51.10
33580;DHT22;19909;43.644;-79.438;2023-06-19T07:48:16;23.60;51.00
33580;DHT22;19909;43.644;-79.438;2023-06-19T07:50:42;23.60;51.10
33580;DHT22;19909;43.644;-79.438;2023-06-19T07:53:08;23.60;51.00
33580;DHT22;19909;43.644;-79.438;2023-06-19T07:55:34;23.60;51.00
33580;DHT22;19909;43.644;-79.438;2023-06-19T07:58:01;23.70;51.10
33580;DHT22;19909;43.644;-79.438;2023-06-19T08:00:27;23.60;51.10
33580;DHT22;19909;43.644;-79.438;2023-06-19T08:02:54;23.60;51.10
33580;DHT22;19909;43.644;-79.438;2023-06-19T08:05:20;23.60;51.10
33580;DHT22;19909;43.644;-79.438;2023-06-19T08:07:47;23.60;51.10
33580;DHT22;19909;43.644;-79.438;2023-06-19T08:10:13;23.60;51.20
33580;DHT22;19909;43.644;-79.438;2023-06-19T08:12:41;23.60;51.00
33580;DHT22;19909;43.644;-79.438;2023-06-19T08:15:08;23.60;51.10
33580;DHT22;19909;43.644;-79.438;2023-06-19T08:17:34;23.60;51.10
33580;DHT22;19909;43.644;-79.438;2023-06-19T08:20:01;23.70;51.20
33580;DHT22;19909;43.644;-79.438;2023-06-19T08:22:31;23.60;51.10
33580;DHT22;19909;43.644;-79.438;2023-06-19T08:24:57;23.60;51.10
33580;DHT22;19909;43.644;-79.438;2023-06-19T08:27:23;23.60;51.10
33580;DHT22;19909;43.644;-79.438;2023-06-19T08:29:49;23.60;51.10
33580;DHT22;19909;43.644;-79.438;2023-06-19T08:32:16;23.60;51.10
33580;DHT22;19909;43.644;-79.438;2023-06-19T08:34:42;23.60;51.10
33580;DHT22;19909;43.644;-79.438;2023-06-19T08:37:08;23.60;51.20
33580;DHT22;19909;43.644;-79.438;2023-06-19T08:39:35;23.60;51.20
33580;DHT22;19909;43.644;-79.438;2023-06-19T08:42:08;23.60;51.20
33580;DHT22;19909;43.644;-79.438;2023-06-19T08:44:35;23.60;51.20
33580;DHT22;19909;43.644;-79.438;2023-06-19T08:47:05;23.60;51.10
33580;DHT22;19909;43.644;-79.438;2023-06-19T08:49:34;23.60;51.10
33580;DHT22;19909;43.644;-79.438;2023-06-19T08:52:03;23.60;51.20
33580;DHT22;19909;43.644;-79.438;2023-06-19T08:54:30;23.60;51.00
33580;DHT22;19909;43.644;-79.438;2023-06-19T08:57:03;23.60;51.10
33580;DHT22;19909;43.644;-79.438;2023-06-19T08:59:30;23.60;51.10
33580;DHT22;19909;43.644;-79.438;2023-06-19T09:01:57;23.60;51.10
33580;DHT22;19909;43.644;-79.438;2023-06-19T09:04:27;23.60;51.20
33580;DHT22;19909;43.644;-79.438;2023-06-19T09:06:58;23.60;51.20
33580;DHT22;19909;43.644;-79.438;2023-06-19T09:09:26;23.60;51.20
33580;DHT22;19909;43.644;-79.438;2023-06-19T09:12:03;23.60;51.30
33580;DHT22;19909;43.644;-79.438;2023-06-19T09:14:38;23.60;51.10
33580;DHT22;19909;43.644;-79.438;2023-06-19T09:17:06;23.60;51.10
33580;DHT22;19909;43.644;-79.438;2023-06-19T09:19:33;23.60;51.10
33580;DHT22;19909;43.644;-79.438;2023-06-19T09:22:04;23.60;51.20
33580;DHT22;19909;43.644;-79.438;2023-06-19T09:24:39;23.60;51.10
33580;DHT22;19909;43.644;-79.438;2023-06-19T09:27:09;23.60;51.20
33580;DHT22;19909;43.644;-79.438;2023-06-19T09:29:39;23.60;51.20
33580;DHT22;19909;43.644;-79.438;2023-06-19T09:32:25;23.60;51.30
33580;DHT22;19909;43.644;-79.438;2023-06-19T09:34:54;23.60;51.20
33580;DHT22;19909;43.644;-79.438;2023-06-19T09:37:28;23.60;51.30
33580;DHT22;19909;43.644;-79.438;2023-06-19T09:40:00;23.50;51.30
33580;DHT22;19909;43.644;-79.438;2023-06-19T09:42:32;23.60;51.30
33580;DHT22;19909;43.644;-79.438;2023-06-19T09:45:03;23.50;51.30
33580;DHT22;19909;43.644;-79.438;2023-06-19T09:47:35;23.60;51.20
33580;DHT22;19909;43.644;-79.438;2023-06-19T09:50:02;23.60;51.20
33580;DHT22;19909;43.644;-79.438;2023-06-19T09:52:29;23.60;51.30
33580;DHT22;19909;43.644;-79.438;2023-06-19T09:54:56;23.60;51.20
33580;DHT22;19909;43.644;-79.438;2023-06-19T09:57:25;23.60;51.20
33580;DHT22;19909;43.644;-79.438;2023-06-19T09:59:54;23.60;51.30
33580;DHT22;19909;43.644;-79.438;2023-06-19T10:02:22;23.60;51.30
33580;DHT22;19909;43.644;-79.438;2023-06-19T10:04:51;23.60;51.30
33580;DHT22;19909;43.644;-79.438;2023-06-19T10:07:18;23.60;51.30
33580;DHT22;19909;43.644;-79.438;2023-06-19T10:10:05;23.60;51.30
33580;DHT22;19909;43.644;-79.438;2023-06-19T10:12:36;23.60;51.30
33580;DHT22;19909;43.644;-79.438;2023-06-19T10:15:16;23.60;51.30
33580;DHT22;19909;43.644;-79.438;2023-06-19T10:17:45;23.60;51.30
33580;DHT22;19909;43.644;-79.438;2023-06-19T10:20:28;23.50;51.20
33580;DHT22;19909;43.644;-79.438;2023-06-19T10:25:47;23.60;51.30
33580;DHT22;19909;43.644;-79.438;2023-06-19T10:31:05;23.50;51.30
33580;DHT22;19909;43.644;-79.438;2023-06-19T10:33:34;23.50;51.30
33580;DHT22;19909;43.644;-79.438;2023-06-19T10:36:19;23.60;51.40
33580;DHT22;19909;43.644;-79.438;2023-06-19T10:38:47;23.60;51.40
33580;DHT22;19909;43.644;-79.438;2023-06-19T10:41:17;23.60;51.40
33580;DHT22;19909;43.644;-79.438;2023-06-19T10:43:53;23.60;51.40
33580;DHT22;19909;43.644;-79.438;2023-06-19T10:46:21;23.60;51.40
33580;DHT22;19909;43.644;-79.438;2023-06-19T10:48:49;23.60;51.30
33580;DHT22;19909;43.644;-79.438;2023-06-19T10:51:21;23.60;51.30
33580;DHT22;19909;43.644;-79.438;2023-06-19T10:53:55;23.60;51.30
33580;DHT22;19909;43.644;-79.438;2023-06-19T10:56:22;23.60;51.30
33580;DHT22;19909;43.644;-79.438;2023-06-19T10:58:55;23.60;51.30
33580;DHT22;19909;43.644;-79.438;2023-06-19T11:01:22;23.60;51.30
33580;DHT22;19909;43.644;-79.438;2023-06-19T11:03:48;23.60;51.30
33580;DHT22;19909;43.644;-79.438;2023-06-19T11:06:20;23.60;51.40
33580;DHT22;19909;43.644;-79.438;2023-06-19T11:08:51;23.50;51.40
33580;DHT22;19909;43.644;-79.438;2023-06-19T11:11:18;23.60;51.40
33580;DHT22;19909;43.644;-79.438;2023-06-19T11:13:46;23.50;51.30
33580;DHT22;19909;43.644;-79.438;2023-06-19T11:16:14;23.60;51.40
33580;DHT22;19909;43.644;-79.438;2023-06-19T11:18:40;23.60;51.30
33580;DHT22;19909;43.644;-79.438;2023-06-19T11:21:06;23.60;51.40
33580;DHT22;19909;43.644;-79.438;2023-06-19T11:23:33;23.60;51.30
33580;DHT22;19909;43.644;-79.438;2023-06-19T11:26:05;23.60;51.30
33580;DHT22;19909;43.644;-79.438;2023-06-19T11:28:32;23.60;51.40
33580;DHT22;19909;43.644;-79.438;2023-06-19T11:31:00;23.50;51.30
33580;DHT22;19909;43.644;-79.438;2023-06-19T11:33:27;23.50;51.40
33580;DHT22;19909;43.644;-79.438;2023-06-19T11:35:54;23.50;51.40
33580;DHT22;19909;43.644;-79.438;2023-06-19T11:38:25;23.50;51.40
33580;DHT22;19909;43.644;-79.438;2023-06-19T11:40:52;23.50;51.40
33580;DHT22;19909;43.644;-79.438;2023-06-19T11:43:25;23.50;51.40
33580;DHT22;19909;43.644;-79.438;2023-06-19T11:45:51;23.50;51.30
33580;DHT22;19909;43.644;-79.438;2023-06-19T11:48:25;23.50;51.30
33580;DHT22;19909;43.644;-79.438;2023-06-19T11:50:52;23.50;51.40
33580;DHT22;19909;43.644;-79.438;2023-06-19T11:53:23;23.50;51.30
33580;DHT22;19909;43.644;-79.438;2023-06-19T11:55:50;23.50;51.30
33580;DHT22;19909;43.644;-79.438;2023-06-19T11:58:17;23.60;51.40
33580;DHT22;19909;43.644;-79.438;2023-06-19T12:00:47;23.50;51.30
33580;DHT22;19909;43.644;-79.438;2023-06-19T12:03:14;23.50;51.30
33580;DHT22;19909;43.644;-79.438;2023-06-19T12:05:40;23.50;51.30
33580;DHT22;19909;43.644;-79.438;2023-06-19T12:08:06;23.60;51.20
33580;DHT22;19909;43.644;-79.438;2023-06-19T12:10:33;23.50;51.30
33580;DHT22;19909;43.644;-79.438;2023-06-19T12:13:00;23.60;51.30
33580;DHT22;19909;43.644;-79.438;2023-06-19T12:15:26;23.60;51.30
33580;DHT22;19909;43.644;-79.438;2023-06-19T12:17:53;23.60;51.30
33580;DHT22;19909;43.644;-79.438;2023-06-19T12:20:19;23.60;51.30
33580;DHT22;19909;43.644;-79.438;2023-06-19T12:22:45;23.60;51.40
33580;DHT22;19909;43.644;-79.438;2023-06-19T12:25:11;23.60;51.30
33580;DHT22;19909;43.644;-79.438;2023-06-19T12:27:40;23.60;51.30
33580;DHT22;19909;43.644;-79.438;2023-06-19T12:30:07;23.60;51.30
33580;DHT22;19909;43.644;-79.438;2023-06-19T12:32:34;23.60;51.40
33580;DHT22;19909;43.644;-79.438;2023-06-19T12:35:00;23.60;51.40
33580;DHT22;19909;43.644;-79.438;2023-06-19T12:37:26;23.60;51.40
33580;DHT22;19909;43.644;-79.438;2023-06-19T12:39:52;23.60;51.40
33580;DHT22;19909;43.644;-79.438;2023-06-19T12:42:18;23.60;51.40
33580;DHT22;19909;43.644;-79.438;2023-06-19T12:44:45;23.60;51.40
33580;DHT22;19909;43.644;-79.438;2023-06-19T12:47:11;23.60;51.30
33580;DHT22;19909;43.644;-79.438;2023-06-19T12:49:38;23.60;51.40
33580;DHT22;19909;43.644;-79.438;2023-06-19T12:52:04;23.60;51.30
33580;DHT22;19909;43.644;-79.438;2023-06-19T12:54:30;23.60;51.30
33580;DHT22;19909;43.644;-79.438;2023-06-19T12:56:57;23.60;51.40
33580;DHT22;19909;43.644;-79.438;2023-06-19T12:59:23;23.60;51.40
33580;DHT22;19909;43.644;-79.438;2023-06-19T13:01:50;23.60;52.00
33580;DHT22;19909;43.644;-79.438;2023-06-19T13:04:16;23.60;51.40
33580;DHT22;19909;43.644;-79.438;2023-06-19T13:06:42;23.60;51.50
33580;DHT22;19909;43.644;-79.438;2023-06-19T13:09:09;23.60;51.50
33580;DHT22;19909;43.644;-79.438;2023-06-19T13:11:35;23.60;51.50
33580;DHT22;19909;43.644;-79.438;2023-06-19T13:14:01;23.60;51.40
33580;DHT22;19909;43.644;-79.438;2023-06-19T13:16:27;23.60;51.30
33580;DHT22;19909;43.644;-79.438;2023-06-19T13:18:54;23.60;51.40
33580;DHT22;19909;43.644;-79.438;2023-06-19T13:21:20;23.60;51.40
33580;DHT22;19909;43.644;-79.438;2023-06-19T13:23:46;23.70;51.40
33580;DHT22;19909;43.644;-79.438;2023-06-19T13:26:15;23.60;51.40
33580;DHT22;19909;43.644;-79.438;2023-06-19T13:28:41;23.60;51.40
33580;DHT22;19909;43.644;-79.438;2023-06-19T13:31:07;23.60;51.40
33580;DHT22;19909;43.644;-79.438;2023-06-19T13:33:33;23.60;51.40
33580;DHT22;19909;43.644;-79.438;2023-06-19T13:35:59;23.60;51.40
33580;DHT22;19909;43.644;-79.438;2023-06-19T13:38:25;23.60;51.50
33580;DHT22;19909;43.644;-79.438;2023-06-19T13:40:51;23.60;51.50
33580;DHT22;19909;43.644;-79.438;2023-06-19T13:43:18;23.60;51.40
33580;DHT22;19909;43.644;-79.438;2023-06-19T13:45:45;23.60;51.40
33580;DHT22;19909;43.644;-79.438;2023-06-19T13:48:11;23.60;51.40
33580;DHT22;19909;43.644;-79.438;2023-06-19T13:50:37;23.70;51.50
33580;DHT22;19909;43.644;-79.438;2023-06-19T13:53:04;23.70;51.40
33580;DHT22;19909;43.644;-79.438;2023-06-19T13:55:30;23.60;51.40
33580;DHT22;19909;43.644;-79.438;2023-06-19T13:57:56;23.60;51.40
33580;DHT22;19909;43.644;-79.438;2023-06-19T14:00:22;23.60;51.40
33580;DHT22;19909;43.644;-79.438;2023-06-19T14:02:48;23.60;51.50
33580;DHT22;19909;43.644;-79.438;2023-06-19T14:05:15;23.60;51.50
33580;DHT22;19909;43.644;-79.438;2023-06-19T14:07:42;23.60;51.50
33580;DHT22;19909;43.644;-79.438;2023-06-19T14:10:09;23.60;51.60
33580;DHT22;19909;43.644;-79.438;2023-06-19T14:12:35;23.60;51.50
33580;DHT22;19909;43.644;-79.438;2023-06-19T14:15:01;23.60;51.50
33580;DHT22;19909;43.644;-79.438;2023-06-19T14:17:27;23.60;51.50
33580;DHT22;19909;43.644;-79.438;2023-06-19T14:19:53;23.60;51.50
33580;DHT22;19909;43.644;-79.438;2023-06-19T14:22:22;23.60;51.40
33580;DHT22;19909;43.644;-79.438;2023-06-19T14:24:48;23.60;51.50
33580;DHT22;19909;43.644;-79.438;2023-06-19T14:27:15;23.60;51.60
33580;DHT22;19909;43.644;-79.438;2023-06-19T14:29:41;23.60;51.60
33580;DHT22;19909;43.644;-79.438;2023-06-19T14:32:07;23.70;51.70
33580;DHT22;19909;43.644;-79.438;2023-06-19T14:34:34;23.60;51.60
33580;DHT22;19909;43.644;-79.438;2023-06-19T14:37:00;23.60;51.60
33580;DHT22;19909;43.644;-79.438;2023-06-19T14:39:26;23.60;51.60
33580;DHT22;19909;43.644;-79.438;2023-06-19T14:41:52;23.50;51.60
33580;DHT22;19909;43.644;-79.438;2023-06-19T14:44:18;23.60;51.60
33580;DHT22;19909;43.644;-79.438;2023-06-19T14:46:44;23.60;51.60
33580;DHT22;19909;43.644;-79.438;2023-06-19T14:49:12;23.60;51.60
33580;DHT22;19909;43.644;-79.438;2023-06-19T14:51:39;23.60;51.60
33580;DHT22;19909;43.644;-79.438;2023-06-19T14:54:05;23.60;51.50
33580;DHT22;19909;43.644;-79.438;2023-06-19T14:56:31;23.60;51.50
33580;DHT22;19909;43.644;-79.438;2023-06-19T14:58:57;23.60;51.50
33580;DHT22;19909;43.644;-79.438;2023-06-19T15:01:24;23.60;51.60
33580;DHT22;19909;43.644;-79.438;2023-06-19T15:03:50;23.60;51.60
33580;DHT22;19909;43.644;-79.438;2023-06-19T15:06:17;23.60;51.60
33580;DHT22;19909;43.644;-79.438;2023-06-19T15:08:43;23.60;51.60